sensor_id;sensor_type;location;lat;lon;timestamp;P1;durP1;ratioP1;P2;durP2;ratioP2
37349;SDS011;23231;52.358;4.926;2023-02-04T00:03:33;24.50;;;4.43;;
37349;SDS011;23231;52.358;4.926;2023-02-04T00:08:34;22.63;;;5.18;;
37349;SDS011;23231;52.358;4.926;2023-02-04T00:13:36;19.15;;;4.60;;
37349;SDS011;23231;52.358;4.926;2023-02-04T00:18:37;29.20;;;5.55;;
37349;SDS011;23231;52.358;4.926;2023-02-04T00:23:37;23.63;;;5.28;;
37349;SDS011;23231;52.358;4.926;2023-02-04T00:28:38;32.58;;;6.35;;
37349;SDS011;23231;52.358;4.926;2023-02-04T00:33:39;26.50;;;6.60;;
37349;SDS011;23231;52.358;4.926;2023-02-04T00:38:41;27.25;;;5.45;;
37349;SDS011;23231;52.358;4.926;2023-02-04T00:43:42;26.55;;;5.50;;
37349;SDS011;23231;52.358;4.926;2023-02-04T00:48:42;28.13;;;5.70;;
37349;SDS011;23231;52.358;4.926;2023-02-04T00:53:42;30.80;;;5.53;;
37349;SDS011;23231;52.358;4.926;2023-02-04T00:58:43;24.75;;;5.22;;
37349;SDS011;23231;52.358;4.926;2023-02-04T01:03:43;32.33;;;5.57;;
37349;SDS011;23231;52.358;4.926;2023-02-04T01:08:44;27.58;;;5.30;;
37349;SDS011;23231;52.358;4.926;2023-02-04T01:13:44;32.20;;;5.80;;
37349;SDS011;23231;52.358;4.926;2023-02-04T01:18:44;29.67;;;6.20;;
37349;SDS011;23231;52.358;4.926;2023-02-04T01:23:45;33.42;;;5.03;;
37349;SDS011;23231;52.358;4.926;2023-02-04T01:28:45;25.20;;;5.50;;
37349;SDS011;23231;52.358;4.926;2023-02-04T01:33:46;23.75;;;5.18;;
37349;SDS011;23231;52.358;4.926;2023-02-04T01:38:49;25.05;;;4.50;;
37349;SDS011;23231;52.358;4.926;2023-02-04T01:43:50;27.92;;;5.60;;
37349;SDS011;23231;52.358;4.926;2023-02-04T01:48:50;30.30;;;5.25;;
37349;SDS011;23231;52.358;4.926;2023-02-04T01:53:50;25.50;;;5.43;;
37349;SDS011;23231;52.358;4.926;2023-02-04T01:58:51;33.25;;;6.32;;
37349;SDS011;23231;52.358;4.926;2023-02-04T02:03:53;30.75;;;4.90;;
37349;SDS011;23231;52.358;4.926;2023-02-04T02:08:54;29.40;;;5.88;;
37349;SDS011;23231;52.358;4.926;2023-02-04T02:13:54;21.73;;;4.97;;
37349;SDS011;23231;52.358;4.926;2023-02-04T02:18:55;24.15;;;4.50;;
37349;SDS011;23231;52.358;4.926;2023-02-04T02:23:56;26.55;;;4.28;;
37349;SDS011;23231;52.358;4.926;2023-02-04T02:28:57;21.17;;;5.95;;
37349;SDS011;23231;52.358;4.926;2023-02-04T02:33:57;24.35;;;4.90;;
37349;SDS011;23231;52.358;4.926;2023-02-04T02:38:57;20.75;;;3.92;;
37349;SDS011;23231;52.358;4.926;2023-02-04T02:43:59;26.05;;;4.80;;
37349;SDS011;23231;52.358;4.926;2023-02-04T02:48:59;21.88;;;4.38;;
37349;SDS011;23231;52.358;4.926;2023-02-04T02:53:59;35.20;;;4.57;;
37349;SDS011;23231;52.358;4.926;2023-02-04T02:59:13;25.63;;;5.22;;
37349;SDS011;23231;52.358;4.926;2023-02-04T03:04:14;23.35;;;4.63;;
37349;SDS011;23231;52.358;4.926;2023-02-04T03:09:14;26.50;;;4.60;;
37349;SDS011;23231;52.358;4.926;2023-02-04T03:14:15;28.70;;;4.43;;
37349;SDS011;23231;52.358;4.926;2023-02-04T03:19:16;24.58;;;5.15;;
37349;SDS011;23231;52.358;4.926;2023-02-04T03:24:16;22.77;;;3.90;;
37349;SDS011;23231;52.358;4.926;2023-02-04T03:29:17;29.15;;;5.38;;
37349;SDS011;23231;52.358;4.926;2023-02-04T03:34:17;29.67;;;5.47;;
37349;SDS011;23231;52.358;4.926;2023-02-04T03:39:18;23.35;;;4.28;;
37349;SDS011;23231;52.358;4.926;2023-02-04T03:44:18;24.10;;;5.15;;
37349;SDS011;23231;52.358;4.926;2023-02-04T03:49:20;30.63;;;6.00;;
37349;SDS011;23231;52.358;4.926;2023-02-04T03:54:21;28.75;;;5.28;;
37349;SDS011;23231;52.358;4.926;2023-02-04T03:59:21;23.08;;;5.35;;
37349;SDS011;23231;52.358;4.926;2023-02-04T04:04:22;26.95;;;5.00;;
37349;SDS011;23231;52.358;4.926;2023-02-04T04:09:22;23.15;;;4.85;;
37349;SDS011;23231;52.358;4.926;2023-02-04T04:14:23;33.15;;;5.03;;
37349;SDS011;23231;52.358;4.926;2023-02-04T04:19:23;20.80;;;4.93;;
37349;SDS011;23231;52.358;4.926;2023-02-04T04:24:23;27.00;;;6.07;;
37349;SDS011;23231;52.358;4.926;2023-02-04T04:29:24;25.48;;;5.32;;
37349;SDS011;23231;52.358;4.926;2023-02-04T04:34:24;29.17;;;6.47;;
37349;SDS011;23231;52.358;4.926;2023-02-04T04:39:24;24.25;;;5.50;;
37349;SDS011;23231;52.358;4.926;2023-02-04T04:44:25;25.60;;;4.85;;
37349;SDS011;23231;52.358;4.926;2023-02-04T04:49:25;29.52;;;5.75;;
37349;SDS011;23231;52.358;4.926;2023-02-04T04:54:26;25.73;;;5.32;;
37349;SDS011;23231;52.358;4.926;2023-02-04T04:59:26;20.75;;;4.70;;
37349;SDS011;23231;52.358;4.926;2023-02-04T05:04:27;25.65;;;5.03;;
37349;SDS011;23231;52.358;4.926;2023-02-04T05:09:27;18.05;;;4.55;;
37349;SDS011;23231;52.358;4.926;2023-02-04T05:14:27;25.88;;;5.25;;
37349;SDS011;23231;52.358;4.926;2023-02-04T05:19:28;28.70;;;5.93;;
37349;SDS011;23231;52.358;4.926;2023-02-04T05:24:28;24.40;;;4.78;;
37349;SDS011;23231;52.358;4.926;2023-02-04T05:29:28;27.50;;;5.40;;
37349;SDS011;23231;52.358;4.926;2023-02-04T05:34:29;23.50;;;4.47;;
37349;SDS011;23231;52.358;4.926;2023-02-04T05:39:29;21.10;;;4.38;;
37349;SDS011;23231;52.358;4.926;2023-02-04T05:44:30;31.85;;;5.32;;
37349;SDS011;23231;52.358;4.926;2023-02-04T05:49:30;25.02;;;4.65;;
37349;SDS011;23231;52.358;4.926;2023-02-04T05:54:30;20.80;;;4.55;;
37349;SDS011;23231;52.358;4.926;2023-02-04T05:59:31;26.67;;;4.72;;
37349;SDS011;23231;52.358;4.926;2023-02-04T06:04:32;26.30;;;5.38;;
37349;SDS011;23231;52.358;4.926;2023-02-04T06:09:32;30.38;;;5.35;;
37349;SDS011;23231;52.358;4.926;2023-02-04T06:14:32;26.50;;;5.38;;
37349;SDS011;23231;52.358;4.926;2023-02-04T06:19:33;19.77;;;5.00;;
37349;SDS011;23231;52.358;4.926;2023-02-04T06:24:33;24.33;;;6.00;;
37349;SDS011;23231;52.358;4.926;2023-02-04T06:29:33;24.40;;;5.13;;
37349;SDS011;23231;52.358;4.926;2023-02-04T06:34:34;23.02;;;5.80;;
37349;SDS011;23231;52.358;4.926;2023-02-04T06:39:35;23.73;;;5.40;;
37349;SDS011;23231;52.358;4.926;2023-02-04T06:44:35;23.67;;;5.80;;
37349;SDS011;23231;52.358;4.926;2023-02-04T06:49:35;33.10;;;6.13;;
37349;SDS011;23231;52.358;4.926;2023-02-04T06:54:36;25.20;;;5.72;;
37349;SDS011;23231;52.358;4.926;2023-02-04T06:59:38;28.05;;;5.55;;
37349;SDS011;23231;52.358;4.926;2023-02-04T07:04:38;27.70;;;5.13;;
37349;SDS011;23231;52.358;4.926;2023-02-04T07:09:39;25.50;;;5.15;;
37349;SDS011;23231;52.358;4.926;2023-02-04T07:14:39;19.77;;;4.50;;
37349;SDS011;23231;52.358;4.926;2023-02-04T07:19:39;20.75;;;5.22;;
37349;SDS011;23231;52.358;4.926;2023-02-04T07:24:40;23.17;;;5.97;;
37349;SDS011;23231;52.358;4.926;2023-02-04T07:29:40;23.98;;;4.75;;
37349;SDS011;23231;52.358;4.926;2023-02-04T07:34:41;24.83;;;5.75;;
37349;SDS011;23231;52.358;4.926;2023-02-04T07:39:41;28.42;;;5.60;;
37349;SDS011;23231;52.358;4.926;2023-02-04T07:44:41;22.17;;;4.68;;
37349;SDS011;23231;52.358;4.926;2023-02-04T07:49:42;20.55;;;5.53;;
37349;SDS011;23231;52.358;4.926;2023-02-04T07:54:42;28.33;;;6.07;;
37349;SDS011;23231;52.358;4.926;2023-02-04T07:59:43;26.73;;;5.22;;
37349;SDS011;23231;52.358;4.926;2023-02-04T08:04:43;24.23;;;4.78;;
37349;SDS011;23231;52.358;4.926;2023-02-04T08:09:43;24.90;;;5.63;;
37349;SDS011;23231;52.358;4.926;2023-02-04T08:14:44;30.08;;;5.38;;
37349;SDS011;23231;52.358;4.926;2023-02-04T08:19:44;25.55;;;5.82;;
37349;SDS011;23231;52.358;4.926;2023-02-04T08:24:44;29.92;;;6.47;;
37349;SDS011;23231;52.358;4.926;2023-02-04T08:29:45;26.23;;;6.10;;
37349;SDS011;23231;52.358;4.926;2023-02-04T08:34:45;24.42;;;5.53;;
37349;SDS011;23231;52.358;4.926;2023-02-04T08:39:47;25.45;;;6.18;;
37349;SDS011;23231;52.358;4.926;2023-02-04T08:44:48;31.15;;;6.18;;
37349;SDS011;23231;52.358;4.926;2023-02-04T08:49:48;22.90;;;5.05;;
37349;SDS011;23231;52.358;4.926;2023-02-04T08:54:48;25.02;;;5.00;;
37349;SDS011;23231;52.358;4.926;2023-02-04T08:59:49;29.40;;;5.95;;
37349;SDS011;23231;52.358;4.926;2023-02-04T09:04:49;20.38;;;5.15;;
37349;SDS011;23231;52.358;4.926;2023-02-04T09:09:50;26.60;;;4.95;;
37349;SDS011;23231;52.358;4.926;2023-02-04T09:14:50;20.30;;;4.93;;
37349;SDS011;23231;52.358;4.926;2023-02-04T09:19:50;21.45;;;4.47;;
37349;SDS011;23231;52.358;4.926;2023-02-04T09:24:51;21.50;;;4.55;;
37349;SDS011;23231;52.358;4.926;2023-02-04T09:29:51;23.33;;;4.80;;
37349;SDS011;23231;52.358;4.926;2023-02-04T09:34:51;26.23;;;4.88;;
37349;SDS011;23231;52.358;4.926;2023-02-04T09:39:52;18.45;;;4.20;;
37349;SDS011;23231;52.358;4.926;2023-02-04T09:44:53;21.88;;;4.35;;
37349;SDS011;23231;52.358;4.926;2023-02-04T09:49:54;28.20;;;5.60;;
37349;SDS011;23231;52.358;4.926;2023-02-04T09:54:54;24.25;;;5.35;;
37349;SDS011;23231;52.358;4.926;2023-02-04T09:59:55;29.38;;;4.70;;
37349;SDS011;23231;52.358;4.926;2023-02-04T10:04:56;25.75;;;4.30;;
37349;SDS011;23231;52.358;4.926;2023-02-04T10:09:56;20.02;;;4.80;;
37349;SDS011;23231;52.358;4.926;2023-02-04T10:14:57;25.88;;;4.65;;
37349;SDS011;23231;52.358;4.926;2023-02-04T10:19:59;22.02;;;4.22;;
37349;SDS011;23231;52.358;4.926;2023-02-04T10:25:00;25.23;;;4.22;;
37349;SDS011;23231;52.358;4.926;2023-02-04T10:30:00;22.88;;;4.60;;
37349;SDS011;23231;52.358;4.926;2023-02-04T10:35:01;28.98;;;5.05;;
37349;SDS011;23231;52.358;4.926;2023-02-04T10:40:02;23.77;;;4.90;;
37349;SDS011;23231;52.358;4.926;2023-02-04T10:45:03;29.58;;;4.65;;
37349;SDS011;23231;52.358;4.926;2023-02-04T10:50:06;21.05;;;5.18;;
37349;SDS011;23231;52.358;4.926;2023-02-04T10:55:19;22.95;;;4.65;;
37349;SDS011;23231;52.358;4.926;2023-02-04T11:00:22;28.92;;;4.80;;
37349;SDS011;23231;52.358;4.926;2023-02-04T11:05:28;22.77;;;5.10;;
37349;SDS011;23231;52.358;4.926;2023-02-04T11:10:31;25.70;;;4.35;;
37349;SDS011;23231;52.358;4.926;2023-02-04T11:20:49;30.00;;;5.03;;
37349;SDS011;23231;52.358;4.926;2023-02-04T11:26:06;29.95;;;5.65;;
37349;SDS011;23231;52.358;4.926;2023-02-04T11:31:57;21.58;;;4.30;;
37349;SDS011;23231;52.358;4.926;2023-02-04T11:42:00;19.77;;;4.13;;
37349;SDS011;23231;52.358;4.926;2023-02-04T11:47:01;16.38;;;4.25;;
37349;SDS011;23231;52.358;4.926;2023-02-04T11:52:06;16.67;;;3.80;;
37349;SDS011;23231;52.358;4.926;2023-02-04T11:57:12;26.05;;;5.85;;
37349;SDS011;23231;52.358;4.926;2023-02-04T12:02:14;18.33;;;4.15;;
37349;SDS011;23231;52.358;4.926;2023-02-04T12:07:20;20.70;;;4.70;;
37349;SDS011;23231;52.358;4.926;2023-02-04T12:12:26;20.40;;;5.03;;
37349;SDS011;23231;52.358;4.926;2023-02-04T12:17:30;22.25;;;5.63;;
37349;SDS011;23231;52.358;4.926;2023-02-04T12:22:30;21.13;;;5.40;;
37349;SDS011;23231;52.358;4.926;2023-02-04T12:27:31;19.95;;;4.82;;
37349;SDS011;23231;52.358;4.926;2023-02-04T12:32:31;21.15;;;4.82;;
37349;SDS011;23231;52.358;4.926;2023-02-04T12:37:31;23.67;;;4.85;;
37349;SDS011;23231;52.358;4.926;2023-02-04T12:42:32;15.23;;;3.60;;
37349;SDS011;23231;52.358;4.926;2023-02-04T12:47:32;16.15;;;3.85;;
37349;SDS011;23231;52.358;4.926;2023-02-04T12:52:33;14.68;;;3.80;;
37349;SDS011;23231;52.358;4.926;2023-02-04T12:57:33;22.83;;;4.55;;
37349;SDS011;23231;52.358;4.926;2023-02-04T13:02:34;16.15;;;4.25;;
37349;SDS011;23231;52.358;4.926;2023-02-04T13:07:34;13.63;;;3.75;;
37349;SDS011;23231;52.358;4.926;2023-02-04T13:12:35;12.38;;;3.28;;
37349;SDS011;23231;52.358;4.926;2023-02-04T13:17:36;13.85;;;3.63;;
37349;SDS011;23231;52.358;4.926;2023-02-04T13:22:36;14.55;;;4.00;;
37349;SDS011;23231;52.358;4.926;2023-02-04T13:27:37;15.23;;;3.92;;
37349;SDS011;23231;52.358;4.926;2023-02-04T13:32:38;13.65;;;3.10;;
37349;SDS011;23231;52.358;4.926;2023-02-04T13:37:39;17.40;;;3.88;;
37349;SDS011;23231;52.358;4.926;2023-02-04T13:42:40;15.45;;;4.45;;
37349;SDS011;23231;52.358;4.926;2023-02-04T13:47:40;19.23;;;5.50;;
37349;SDS011;23231;52.358;4.926;2023-02-04T13:52:41;19.55;;;4.82;;
37349;SDS011;23231;52.358;4.926;2023-02-04T13:57:41;18.60;;;5.18;;
37349;SDS011;23231;52.358;4.926;2023-02-04T14:02:41;15.07;;;4.72;;
37349;SDS011;23231;52.358;4.926;2023-02-04T14:07:42;15.65;;;4.43;;
37349;SDS011;23231;52.358;4.926;2023-02-04T14:12:42;17.02;;;4.18;;
37349;SDS011;23231;52.358;4.926;2023-02-04T14:17:43;14.32;;;3.92;;
37349;SDS011;23231;52.358;4.926;2023-02-04T14:22:43;12.68;;;3.30;;
37349;SDS011;23231;52.358;4.926;2023-02-04T14:27:44;7.28;;;2.00;;
37349;SDS011;23231;52.358;4.926;2023-02-04T14:32:44;10.13;;;2.10;;
37349;SDS011;23231;52.358;4.926;2023-02-04T14:37:45;10.85;;;2.42;;
37349;SDS011;23231;52.358;4.926;2023-02-04T14:42:45;11.60;;;2.50;;
37349;SDS011;23231;52.358;4.926;2023-02-04T14:47:46;9.40;;;2.38;;
37349;SDS011;23231;52.358;4.926;2023-02-04T14:52:46;9.73;;;2.67;;
37349;SDS011;23231;52.358;4.926;2023-02-04T14:57:47;9.45;;;2.30;;
37349;SDS011;23231;52.358;4.926;2023-02-04T15:02:47;8.00;;;1.83;;
37349;SDS011;23231;52.358;4.926;2023-02-04T15:07:47;8.73;;;2.20;;
37349;SDS011;23231;52.358;4.926;2023-02-04T15:12:48;6.57;;;2.00;;
37349;SDS011;23231;52.358;4.926;2023-02-04T15:17:48;12.57;;;2.58;;
37349;SDS011;23231;52.358;4.926;2023-02-04T15:22:49;12.38;;;2.80;;
37349;SDS011;23231;52.358;4.926;2023-02-04T15:27:51;8.00;;;2.10;;
37349;SDS011;23231;52.358;4.926;2023-02-04T15:32:51;12.10;;;3.83;;
37349;SDS011;23231;52.358;4.926;2023-02-04T15:37:52;8.38;;;2.30;;
37349;SDS011;23231;52.358;4.926;2023-02-04T15:42:52;9.45;;;1.92;;
37349;SDS011;23231;52.358;4.926;2023-02-04T15:47:53;12.48;;;2.80;;
37349;SDS011;23231;52.358;4.926;2023-02-04T15:52:53;10.20;;;2.88;;
37349;SDS011;23231;52.358;4.926;2023-02-04T15:57:54;7.68;;;1.90;;
37349;SDS011;23231;52.358;4.926;2023-02-04T16:02:54;6.72;;;2.22;;
37349;SDS011;23231;52.358;4.926;2023-02-04T16:07:55;8.48;;;2.90;;
37349;SDS011;23231;52.358;4.926;2023-02-04T16:12:55;11.80;;;3.35;;
37349;SDS011;23231;52.358;4.926;2023-02-04T16:17:57;11.38;;;3.03;;
37349;SDS011;23231;52.358;4.926;2023-02-04T16:22:58;11.90;;;3.53;;
37349;SDS011;23231;52.358;4.926;2023-02-04T16:27:58;13.82;;;3.20;;
37349;SDS011;23231;52.358;4.926;2023-02-04T16:32:58;12.73;;;2.83;;
37349;SDS011;23231;52.358;4.926;2023-02-04T16:37:59;14.10;;;3.13;;
37349;SDS011;23231;52.358;4.926;2023-02-04T16:42:59;18.88;;;3.88;;
37349;SDS011;23231;52.358;4.926;2023-02-04T16:48:00;8.13;;;3.38;;
37349;SDS011;23231;52.358;4.926;2023-02-04T16:53:00;12.32;;;3.50;;
37349;SDS011;23231;52.358;4.926;2023-02-04T16:58:00;14.90;;;3.58;;
37349;SDS011;23231;52.358;4.926;2023-02-04T17:03:01;13.70;;;3.40;;
37349;SDS011;23231;52.358;4.926;2023-02-04T17:08:01;14.05;;;4.40;;
37349;SDS011;23231;52.358;4.926;2023-02-04T17:13:02;16.02;;;5.22;;
37349;SDS011;23231;52.358;4.926;2023-02-04T17:18:02;13.70;;;4.70;;
37349;SDS011;23231;52.358;4.926;2023-02-04T17:23:03;14.32;;;4.63;;
37349;SDS011;23231;52.358;4.926;2023-02-04T17:28:03;15.40;;;4.32;;
37349;SDS011;23231;52.358;4.926;2023-02-04T17:33:04;25.77;;;10.07;;
37349;SDS011;23231;52.358;4.926;2023-02-04T17:38:04;24.25;;;9.10;;
37349;SDS011;23231;52.358;4.926;2023-02-04T17:43:04;27.23;;;11.52;;
37349;SDS011;23231;52.358;4.926;2023-02-04T17:48:06;21.00;;;6.47;;
37349;SDS011;23231;52.358;4.926;2023-02-04T17:53:07;17.13;;;6.30;;
37349;SDS011;23231;52.358;4.926;2023-02-04T17:58:16;18.73;;;5.63;;
37349;SDS011;23231;52.358;4.926;2023-02-04T18:03:21;14.90;;;5.45;;
37349;SDS011;23231;52.358;4.926;2023-02-04T18:13:34;18.00;;;6.03;;
37349;SDS011;23231;52.358;4.926;2023-02-04T18:18:35;20.05;;;5.50;;
37349;SDS011;23231;52.358;4.926;2023-02-04T18:23:37;17.23;;;6.30;;
37349;SDS011;23231;52.358;4.926;2023-02-04T18:28:37;22.95;;;6.93;;
37349;SDS011;23231;52.358;4.926;2023-02-04T18:33:41;18.90;;;6.65;;
37349;SDS011;23231;52.358;4.926;2023-02-04T18:38:44;13.90;;;4.80;;
37349;SDS011;23231;52.358;4.926;2023-02-04T18:43:44;11.18;;;3.95;;
37349;SDS011;23231;52.358;4.926;2023-02-04T18:54:00;13.45;;;4.82;;
37349;SDS011;23231;52.358;4.926;2023-02-04T18:59:08;19.65;;;6.90;;
37349;SDS011;23231;52.358;4.926;2023-02-04T19:04:12;16.83;;;6.47;;
37349;SDS011;23231;52.358;4.926;2023-02-04T19:09:21;13.10;;;4.35;;
37349;SDS011;23231;52.358;4.926;2023-02-04T19:14:35;13.80;;;5.30;;
37349;SDS011;23231;52.358;4.926;2023-02-04T19:25:01;15.20;;;5.38;;
37349;SDS011;23231;52.358;4.926;2023-02-04T19:35:28;17.60;;;5.25;;
37349;SDS011;23231;52.358;4.926;2023-02-04T19:40:37;17.05;;;5.93;;
37349;SDS011;23231;52.358;4.926;2023-02-04T19:45:38;13.55;;;4.90;;
37349;SDS011;23231;52.358;4.926;2023-02-04T19:50:38;15.95;;;4.90;;
37349;SDS011;23231;52.358;4.926;2023-02-04T19:55:43;14.88;;;5.40;;
37349;SDS011;23231;52.358;4.926;2023-02-04T20:00:51;13.30;;;4.53;;
37349;SDS011;23231;52.358;4.926;2023-02-04T20:05:58;18.45;;;5.38;;
37349;SDS011;23231;52.358;4.926;2023-02-04T20:11:05;14.32;;;5.65;;
37349;SDS011;23231;52.358;4.926;2023-02-04T20:16:36;14.38;;;6.32;;
37349;SDS011;23231;52.358;4.926;2023-02-04T20:21:38;18.98;;;7.07;;
37349;SDS011;23231;52.358;4.926;2023-02-04T20:26:38;20.17;;;7.93;;
37349;SDS011;23231;52.358;4.926;2023-02-04T20:31:39;20.35;;;7.28;;
37349;SDS011;23231;52.358;4.926;2023-02-04T20:36:40;20.08;;;8.85;;
37349;SDS011;23231;52.358;4.926;2023-02-04T20:41:41;24.63;;;9.32;;
37349;SDS011;23231;52.358;4.926;2023-02-04T20:46:42;23.27;;;10.02;;
37349;SDS011;23231;52.358;4.926;2023-02-04T20:51:42;24.92;;;10.38;;
37349;SDS011;23231;52.358;4.926;2023-02-04T20:56:43;26.17;;;11.23;;
37349;SDS011;23231;52.358;4.926;2023-02-04T21:01:44;23.48;;;10.95;;
37349;SDS011;23231;52.358;4.926;2023-02-04T21:06:45;26.42;;;12.15;;
37349;SDS011;23231;52.358;4.926;2023-02-04T21:11:47;27.20;;;11.82;;
37349;SDS011;23231;52.358;4.926;2023-02-04T21:16:47;29.85;;;12.57;;
37349;SDS011;23231;52.358;4.926;2023-02-04T21:21:48;35.13;;;12.38;;
37349;SDS011;23231;52.358;4.926;2023-02-04T21:26:48;28.05;;;12.70;;
37349;SDS011;23231;52.358;4.926;2023-02-04T21:31:49;30.27;;;12.80;;
37349;SDS011;23231;52.358;4.926;2023-02-04T21:36:49;32.72;;;13.68;;
37349;SDS011;23231;52.358;4.926;2023-02-04T21:41:49;26.08;;;13.48;;
37349;SDS011;23231;52.358;4.926;2023-02-04T21:47:08;28.40;;;14.88;;
37349;SDS011;23231;52.358;4.926;2023-02-04T21:52:09;35.20;;;15.55;;
37349;SDS011;23231;52.358;4.926;2023-02-04T21:57:09;37.17;;;18.27;;
37349;SDS011;23231;52.358;4.926;2023-02-04T22:02:10;36.72;;;18.75;;
37349;SDS011;23231;52.358;4.926;2023-02-04T22:07:10;40.50;;;19.00;;
37349;SDS011;23231;52.358;4.926;2023-02-04T22:12:10;39.60;;;19.95;;
37349;SDS011;23231;52.358;4.926;2023-02-04T22:17:11;38.20;;;19.77;;
37349;SDS011;23231;52.358;4.926;2023-02-04T22:22:11;39.13;;;18.52;;
37349;SDS011;23231;52.358;4.926;2023-02-04T22:27:12;36.67;;;16.70;;
37349;SDS011;23231;52.358;4.926;2023-02-04T22:32:12;37.78;;;17.38;;
37349;SDS011;23231;52.358;4.926;2023-02-04T22:37:13;34.83;;;16.52;;
37349;SDS011;23231;52.358;4.926;2023-02-04T22:42:13;39.45;;;16.88;;
37349;SDS011;23231;52.358;4.926;2023-02-04T22:47:13;34.42;;;16.45;;
37349;SDS011;23231;52.358;4.926;2023-02-04T22:52:14;34.35;;;15.65;;
37349;SDS011;23231;52.358;4.926;2023-02-04T22:57:14;33.20;;;15.65;;
37349;SDS011;23231;52.358;4.926;2023-02-04T23:02:15;33.60;;;15.30;;
37349;SDS011;23231;52.358;4.926;2023-02-04T23:07:15;28.65;;;13.88;;
37349;SDS011;23231;52.358;4.926;2023-02-04T23:12:15;30.15;;;14.23;;
37349;SDS011;23231;52.358;4.926;2023-02-04T23:17:16;29.08;;;14.30;;
37349;SDS011;23231;52.358;4.926;2023-02-04T23:22:17;28.60;;;13.63;;
37349;SDS011;23231;52.358;4.926;2023-02-04T23:27:17;31.92;;;14.00;;
37349;SDS011;23231;52.358;4.926;2023-02-04T23:32:19;28.20;;;13.18;;
37349;SDS011;23231;52.358;4.926;2023-02-04T23:37:19;31.80;;;14.77;;
37349;SDS011;23231;52.358;4.926;2023-02-04T23:42:20;29.00;;;13.68;;
37349;SDS011;23231;52.358;4.926;2023-02-04T23:47:20;30.25;;;13.85;;
37349;SDS011;23231;52.358;4.926;2023-02-04T23:52:21;32.97;;;14.60;;
37349;SDS011;23231;52.358;4.926;2023-02-04T23:57:21;29.83;;;13.90;;
